sensor_id;sensor_type;location;lat;lon;timestamp;temperature;humidity
14401;DHT22;7285;50.894;5.462;2022-12-10T00:02:26;-2.30;99.90
14401;DHT22;7285;50.894;5.462;2022-12-10T00:04:55;-2.30;99.90
14401;DHT22;7285;50.894;5.462;2022-12-10T00:07:22;-2.30;99.90
14401;DHT22;7285;50.894;5.462;2022-12-10T00:09:49;-2.30;99.90
14401;DHT22;7285;50.894;5.462;2022-12-10T00:12:16;-2.40;99.90
14401;DHT22;7285;50.894;5.462;2022-12-10T00:14:43;-2.50;47.00
14401;DHT22;7285;50.894;5.462;2022-12-10T00:17:09;-2.60;1.00
14401;DHT22;7285;50.894;5.462;2022-12-10T00:19:38;-2.50;99.90
14401;DHT22;7285;50.894;5.462;2022-12-10T00:22:05;-2.50;99.90
14401;DHT22;7285;50.894;5.462;2022-12-10T00:24:32;-2.50;99.90
14401;DHT22;7285;50.894;5.462;2022-12-10T00:26:59;-2.60;99.90
14401;DHT22;7285;50.894;5.462;2022-12-10T00:29:26;-2.60;99.90
14401;DHT22;7285;50.894;5.462;2022-12-10T00:31:53;-2.70;99.90
14401;DHT22;7285;50.894;5.462;2022-12-10T00:34:20;-2.70;99.90
14401;DHT22;7285;50.894;5.462;2022-12-10T00:36:48;-2.70;99.90
14401;DHT22;7285;50.894;5.462;2022-12-10T00:39:17;-2.60;99.90
14401;DHT22;7285;50.894;5.462;2022-12-10T00:41:44;-2.60;99.90
14401;DHT22;7285;50.894;5.462;2022-12-10T00:44:11;-2.70;99.90
14401;DHT22;7285;50.894;5.462;2022-12-10T00:46:38;-2.80;99.90
14401;DHT22;7285;50.894;5.462;2022-12-10T00:49:05;-2.80;99.90
14401;DHT22;7285;50.894;5.462;2022-12-10T00:51:32;-2.80;99.90
14401;DHT22;7285;50.894;5.462;2022-12-10T00:54:00;-2.80;99.90
14401;DHT22;7285;50.894;5.462;2022-12-10T00:56:29;-2.90;1.00
14401;DHT22;7285;50.894;5.462;2022-12-10T00:58:58;-2.80;1.00
14401;DHT22;7285;50.894;5.462;2022-12-10T01:01:27;-2.80;1.00
14401;DHT22;7285;50.894;5.462;2022-12-10T01:03:57;-2.80;1.00
14401;DHT22;7285;50.894;5.462;2022-12-10T01:06:26;-2.80;1.00
14401;DHT22;7285;50.894;5.462;2022-12-10T01:08:56;-2.80;1.00
14401;DHT22;7285;50.894;5.462;2022-12-10T01:11:28;-2.70;1.00
14401;DHT22;7285;50.894;5.462;2022-12-10T01:13:55;-2.70;1.00
14401;DHT22;7285;50.894;5.462;2022-12-10T01:16:23;-2.60;1.00
14401;DHT22;7285;50.894;5.462;2022-12-10T01:18:52;-2.60;99.90
14401;DHT22;7285;50.894;5.462;2022-12-10T01:21:19;-2.50;99.90
14401;DHT22;7285;50.894;5.462;2022-12-10T01:23:48;-2.50;1.00
14401;DHT22;7285;50.894;5.462;2022-12-10T01:26:17;-2.40;1.00
14401;DHT22;7285;50.894;5.462;2022-12-10T01:28:46;-2.40;99.90
14401;DHT22;7285;50.894;5.462;2022-12-10T01:31:15;-2.40;99.90
14401;DHT22;7285;50.894;5.462;2022-12-10T01:33:42;-2.30;1.00
14401;DHT22;7285;50.894;5.462;2022-12-10T01:36:11;-2.30;1.00
14401;DHT22;7285;50.894;5.462;2022-12-10T01:38:39;-2.30;1.00
14401;DHT22;7285;50.894;5.462;2022-12-10T01:41:07;-2.10;97.50
14401;DHT22;7285;50.894;5.462;2022-12-10T01:43:58;-2.10;99.90
14401;DHT22;7285;50.894;5.462;2022-12-10T01:46:26;-2.10;1.00
14401;DHT22;7285;50.894;5.462;2022-12-10T01:48:54;-2.10;1.00
14401;DHT22;7285;50.894;5.462;2022-12-10T01:51:23;-2.00;1.00
14401;DHT22;7285;50.894;5.462;2022-12-10T01:53:50;-2.00;99.90
14401;DHT22;7285;50.894;5.462;2022-12-10T01:56:19;-1.90;99.90
14401;DHT22;7285;50.894;5.462;2022-12-10T01:58:47;-1.90;1.00
14401;DHT22;7285;50.894;5.462;2022-12-10T02:01:24;-1.90;1.00
14401;DHT22;7285;50.894;5.462;2022-12-10T02:03:58;-1.80;1.00
14401;DHT22;7285;50.894;5.462;2022-12-10T02:06:39;-1.80;99.90
14401;DHT22;7285;50.894;5.462;2022-12-10T02:09:12;-1.70;99.90
14401;DHT22;7285;50.894;5.462;2022-12-10T02:11:56;-1.70;99.90
14401;DHT22;7285;50.894;5.462;2022-12-10T02:14:29;-1.60;1.00
14401;DHT22;7285;50.894;5.462;2022-12-10T02:17:06;-1.60;1.00
14401;DHT22;7285;50.894;5.462;2022-12-10T02:22:27;-1.50;16.80
14401;DHT22;7285;50.894;5.462;2022-12-10T02:24:55;-1.50;92.20
14401;DHT22;7285;50.894;5.462;2022-12-10T02:27:28;-1.40;99.90
14401;DHT22;7285;50.894;5.462;2022-12-10T02:29:58;-1.40;99.90
14401;DHT22;7285;50.894;5.462;2022-12-10T02:32:31;-1.40;99.90
14401;DHT22;7285;50.894;5.462;2022-12-10T02:35:03;-1.40;99.90
14401;DHT22;7285;50.894;5.462;2022-12-10T02:37:33;-1.30;99.90
14401;DHT22;7285;50.894;5.462;2022-12-10T02:40:04;-1.30;99.90
14401;DHT22;7285;50.894;5.462;2022-12-10T02:42:35;-1.30;99.90
14401;DHT22;7285;50.894;5.462;2022-12-10T02:45:07;-1.20;99.90
14401;DHT22;7285;50.894;5.462;2022-12-10T02:47:35;-1.20;99.90
14401;DHT22;7285;50.894;5.462;2022-12-10T02:50:04;-1.20;99.90
14401;DHT22;7285;50.894;5.462;2022-12-10T02:52:31;-1.20;99.90
14401;DHT22;7285;50.894;5.462;2022-12-10T02:54:58;-1.20;99.90
14401;DHT22;7285;50.894;5.462;2022-12-10T02:57:30;-1.20;99.90
14401;DHT22;7285;50.894;5.462;2022-12-10T03:00:08;-1.10;99.90
14401;DHT22;7285;50.894;5.462;2022-12-10T03:02:54;-1.20;99.90
14401;DHT22;7285;50.894;5.462;2022-12-10T03:05:27;-1.10;99.90
14401;DHT22;7285;50.894;5.462;2022-12-10T03:08:04;-1.10;99.90
14401;DHT22;7285;50.894;5.462;2022-12-10T03:10:40;-1.10;99.90
14401;DHT22;7285;50.894;5.462;2022-12-10T03:13:11;-1.10;81.20
14401;DHT22;7285;50.894;5.462;2022-12-10T03:15:43;-1.10;1.00
14401;DHT22;7285;50.894;5.462;2022-12-10T03:18:11;-1.10;1.00
14401;DHT22;7285;50.894;5.462;2022-12-10T03:20:42;-1.10;1.00
14401;DHT22;7285;50.894;5.462;2022-12-10T03:23:15;-1.10;1.00
14401;DHT22;7285;50.894;5.462;2022-12-10T03:25:45;-1.10;1.00
14401;DHT22;7285;50.894;5.462;2022-12-10T03:28:13;-1.10;99.90
14401;DHT22;7285;50.894;5.462;2022-12-10T03:30:43;-1.10;99.90
14401;DHT22;7285;50.894;5.462;2022-12-10T03:33:11;-1.10;1.00
14401;DHT22;7285;50.894;5.462;2022-12-10T03:35:39;-1.10;1.00
14401;DHT22;7285;50.894;5.462;2022-12-10T03:38:06;-1.10;1.00
14401;DHT22;7285;50.894;5.462;2022-12-10T03:40:34;-1.00;1.00
14401;DHT22;7285;50.894;5.462;2022-12-10T03:43:01;-1.00;1.00
14401;DHT22;7285;50.894;5.462;2022-12-10T03:45:27;-1.00;1.00
14401;DHT22;7285;50.894;5.462;2022-12-10T03:47:56;-1.10;99.90
14401;DHT22;7285;50.894;5.462;2022-12-10T03:50:23;-1.00;99.90
14401;DHT22;7285;50.894;5.462;2022-12-10T03:52:49;-1.10;99.90
14401;DHT22;7285;50.894;5.462;2022-12-10T03:55:16;-1.10;1.00
14401;DHT22;7285;50.894;5.462;2022-12-10T03:57:43;-1.00;1.00
14401;DHT22;7285;50.894;5.462;2022-12-10T04:00:11;-1.00;1.00
14401;DHT22;7285;50.894;5.462;2022-12-10T04:02:38;-1.00;1.00
14401;DHT22;7285;50.894;5.462;2022-12-10T04:05:07;-1.00;1.00
14401;DHT22;7285;50.894;5.462;2022-12-10T04:07:34;-1.00;1.00
14401;DHT22;7285;50.894;5.462;2022-12-10T04:10:03;-0.90;1.00
14401;DHT22;7285;50.894;5.462;2022-12-10T04:12:30;-0.90;1.00
14401;DHT22;7285;50.894;5.462;2022-12-10T04:14:57;-0.90;99.90
14401;DHT22;7285;50.894;5.462;2022-12-10T04:17:41;-0.90;99.90
14401;DHT22;7285;50.894;5.462;2022-12-10T04:20:10;-0.90;99.90
14401;DHT22;7285;50.894;5.462;2022-12-10T04:22:57;-0.90;99.90
14401;DHT22;7285;50.894;5.462;2022-12-10T04:25:41;-0.90;99.90
14401;DHT22;7285;50.894;5.462;2022-12-10T04:28:22;-0.90;99.90
14401;DHT22;7285;50.894;5.462;2022-12-10T04:30:49;-0.90;99.90
14401;DHT22;7285;50.894;5.462;2022-12-10T04:33:16;-0.90;1.00
14401;DHT22;7285;50.894;5.462;2022-12-10T04:35:44;-0.90;1.00
14401;DHT22;7285;50.894;5.462;2022-12-10T04:38:11;-0.90;1.00
14401;DHT22;7285;50.894;5.462;2022-12-10T04:40:38;-0.90;1.00
14401;DHT22;7285;50.894;5.462;2022-12-10T04:43:05;-0.90;1.00
14401;DHT22;7285;50.894;5.462;2022-12-10T04:45:34;-0.90;1.00
14401;DHT22;7285;50.894;5.462;2022-12-10T04:48:01;-0.90;1.00
14401;DHT22;7285;50.894;5.462;2022-12-10T04:50:28;-0.90;1.00
14401;DHT22;7285;50.894;5.462;2022-12-10T04:52:56;-0.90;99.90
14401;DHT22;7285;50.894;5.462;2022-12-10T04:55:23;-0.90;99.90
14401;DHT22;7285;50.894;5.462;2022-12-10T04:57:50;-0.80;1.00
14401;DHT22;7285;50.894;5.462;2022-12-10T05:00:17;-0.80;1.00
14401;DHT22;7285;50.894;5.462;2022-12-10T05:02:44;-0.80;1.00
14401;DHT22;7285;50.894;5.462;2022-12-10T05:05:14;-0.80;1.00
14401;DHT22;7285;50.894;5.462;2022-12-10T05:07:41;-0.80;1.00
14401;DHT22;7285;50.894;5.462;2022-12-10T05:10:09;-0.80;1.00
14401;DHT22;7285;50.894;5.462;2022-12-10T05:12:36;-0.80;1.00
14401;DHT22;7285;50.894;5.462;2022-12-10T05:15:04;-0.80;1.00
14401;DHT22;7285;50.894;5.462;2022-12-10T05:17:31;-0.80;1.00
14401;DHT22;7285;50.894;5.462;2022-12-10T05:19:59;-0.80;1.00
14401;DHT22;7285;50.894;5.462;2022-12-10T05:22:25;-0.80;99.90
14401;DHT22;7285;50.894;5.462;2022-12-10T05:25:11;-0.80;99.90
14401;DHT22;7285;50.894;5.462;2022-12-10T05:27:38;-0.90;99.90
14401;DHT22;7285;50.894;5.462;2022-12-10T05:30:06;-0.80;99.90
14401;DHT22;7285;50.894;5.462;2022-12-10T05:32:33;-0.80;99.90
14401;DHT22;7285;50.894;5.462;2022-12-10T05:35:00;-0.80;99.90
14401;DHT22;7285;50.894;5.462;2022-12-10T05:37:27;-0.80;99.90
14401;DHT22;7285;50.894;5.462;2022-12-10T05:39:55;-0.80;16.80
14401;DHT22;7285;50.894;5.462;2022-12-10T05:42:23;-0.80;1.00
14401;DHT22;7285;50.894;5.462;2022-12-10T05:44:50;-0.80;1.00
14401;DHT22;7285;50.894;5.462;2022-12-10T05:47:17;-0.90;1.00
14401;DHT22;7285;50.894;5.462;2022-12-10T05:49:44;-0.80;1.00
14401;DHT22;7285;50.894;5.462;2022-12-10T05:52:12;-0.80;1.00
14401;DHT22;7285;50.894;5.462;2022-12-10T05:54:39;-0.90;1.00
14401;DHT22;7285;50.894;5.462;2022-12-10T05:57:06;-0.80;17.30
14401;DHT22;7285;50.894;5.462;2022-12-10T05:59:34;-0.80;1.00
14401;DHT22;7285;50.894;5.462;2022-12-10T06:02:01;-0.80;14.10
14401;DHT22;7285;50.894;5.462;2022-12-10T06:04:28;-0.80;25.90
14401;DHT22;7285;50.894;5.462;2022-12-10T06:06:55;-0.80;99.90
14401;DHT22;7285;50.894;5.462;2022-12-10T06:09:22;-0.80;99.90
14401;DHT22;7285;50.894;5.462;2022-12-10T06:11:49;-0.80;99.90
14401;DHT22;7285;50.894;5.462;2022-12-10T06:14:16;-0.80;99.90
14401;DHT22;7285;50.894;5.462;2022-12-10T06:16:44;-0.80;99.90
14401;DHT22;7285;50.894;5.462;2022-12-10T06:19:11;-0.80;1.00
14401;DHT22;7285;50.894;5.462;2022-12-10T06:21:38;-0.80;1.00
14401;DHT22;7285;50.894;5.462;2022-12-10T06:24:06;-0.80;99.90
14401;DHT22;7285;50.894;5.462;2022-12-10T06:26:33;-0.80;99.90
14401;DHT22;7285;50.894;5.462;2022-12-10T06:29:00;-0.80;99.90
14401;DHT22;7285;50.894;5.462;2022-12-10T06:31:27;-0.80;99.90
14401;DHT22;7285;50.894;5.462;2022-12-10T06:33:56;-0.80;99.90
14401;DHT22;7285;50.894;5.462;2022-12-10T06:36:23;-0.80;99.90
14401;DHT22;7285;50.894;5.462;2022-12-10T06:38:49;-0.80;99.90
14401;DHT22;7285;50.894;5.462;2022-12-10T06:41:18;-0.70;99.90
14401;DHT22;7285;50.894;5.462;2022-12-10T06:43:46;-0.80;99.90
14401;DHT22;7285;50.894;5.462;2022-12-10T06:46:15;-0.70;99.90
14401;DHT22;7285;50.894;5.462;2022-12-10T06:48:42;-0.80;99.90
14401;DHT22;7285;50.894;5.462;2022-12-10T06:51:12;-0.70;99.90
14401;DHT22;7285;50.894;5.462;2022-12-10T06:53:40;-0.80;99.90
14401;DHT22;7285;50.894;5.462;2022-12-10T06:56:07;-0.80;99.90
14401;DHT22;7285;50.894;5.462;2022-12-10T06:58:38;-0.80;93.80
14401;DHT22;7285;50.894;5.462;2022-12-10T07:01:09;-0.70;1.00
14401;DHT22;7285;50.894;5.462;2022-12-10T07:03:37;-0.80;13.20
14401;DHT22;7285;50.894;5.462;2022-12-10T07:06:05;-0.70;1.50
14401;DHT22;7285;50.894;5.462;2022-12-10T07:08:35;-0.80;1.00
14401;DHT22;7285;50.894;5.462;2022-12-10T07:11:03;-0.80;1.00
14401;DHT22;7285;50.894;5.462;2022-12-10T07:13:30;-0.80;1.00
14401;DHT22;7285;50.894;5.462;2022-12-10T07:15:57;-0.80;1.00
14401;DHT22;7285;50.894;5.462;2022-12-10T07:18:24;-0.80;99.90
14401;DHT22;7285;50.894;5.462;2022-12-10T07:20:53;-0.70;99.90
14401;DHT22;7285;50.894;5.462;2022-12-10T07:23:20;-0.80;99.90
14401;DHT22;7285;50.894;5.462;2022-12-10T07:25:49;-0.80;1.00
14401;DHT22;7285;50.894;5.462;2022-12-10T07:28:15;-0.80;1.00
14401;DHT22;7285;50.894;5.462;2022-12-10T07:30:42;-0.80;1.00
14401;DHT22;7285;50.894;5.462;2022-12-10T07:33:09;-0.80;1.00
14401;DHT22;7285;50.894;5.462;2022-12-10T07:35:38;-0.80;1.00
14401;DHT22;7285;50.894;5.462;2022-12-10T07:38:05;-0.70;1.00
14401;DHT22;7285;50.894;5.462;2022-12-10T07:40:32;-0.80;1.00
14401;DHT22;7285;50.894;5.462;2022-12-10T07:43:00;-0.80;1.00
14401;DHT22;7285;50.894;5.462;2022-12-10T07:45:27;-0.80;1.00
14401;DHT22;7285;50.894;5.462;2022-12-10T07:47:54;-0.80;1.00
14401;DHT22;7285;50.894;5.462;2022-12-10T07:50:21;-0.80;1.00
14401;DHT22;7285;50.894;5.462;2022-12-10T07:52:48;-0.80;1.00
14401;DHT22;7285;50.894;5.462;2022-12-10T07:55:15;-0.80;1.00
14401;DHT22;7285;50.894;5.462;2022-12-10T07:57:42;-0.70;1.00
14401;DHT22;7285;50.894;5.462;2022-12-10T08:00:11;-0.70;1.00
14401;DHT22;7285;50.894;5.462;2022-12-10T08:02:38;-0.70;1.00
14401;DHT22;7285;50.894;5.462;2022-12-10T08:05:06;-0.70;1.00
14401;DHT22;7285;50.894;5.462;2022-12-10T08:07:33;-0.70;1.00
14401;DHT22;7285;50.894;5.462;2022-12-10T08:10:00;-0.80;1.00
14401;DHT22;7285;50.894;5.462;2022-12-10T08:12:27;-0.70;1.00
14401;DHT22;7285;50.894;5.462;2022-12-10T08:14:54;-0.70;1.00
14401;DHT22;7285;50.894;5.462;2022-12-10T08:17:22;-0.70;99.90
14401;DHT22;7285;50.894;5.462;2022-12-10T08:19:49;-0.70;99.90
14401;DHT22;7285;50.894;5.462;2022-12-10T08:22:16;-0.60;99.90
14401;DHT22;7285;50.894;5.462;2022-12-10T08:24:43;-0.60;99.90
14401;DHT22;7285;50.894;5.462;2022-12-10T08:27:10;-0.60;99.90
14401;DHT22;7285;50.894;5.462;2022-12-10T08:29:36;-0.60;99.90
14401;DHT22;7285;50.894;5.462;2022-12-10T08:32:03;-0.60;99.90
14401;DHT22;7285;50.894;5.462;2022-12-10T08:34:32;-0.50;99.90
14401;DHT22;7285;50.894;5.462;2022-12-10T08:36:58;-0.40;99.90
14401;DHT22;7285;50.894;5.462;2022-12-10T08:39:25;-0.40;99.90
14401;DHT22;7285;50.894;5.462;2022-12-10T08:41:52;-0.40;99.90
14401;DHT22;7285;50.894;5.462;2022-12-10T08:44:19;-0.40;99.90
14401;DHT22;7285;50.894;5.462;2022-12-10T08:46:46;-0.40;99.90
14401;DHT22;7285;50.894;5.462;2022-12-10T08:49:13;-0.40;99.90
14401;DHT22;7285;50.894;5.462;2022-12-10T08:51:41;-0.40;21.90
14401;DHT22;7285;50.894;5.462;2022-12-10T08:54:08;-0.30;57.30
14401;DHT22;7285;50.894;5.462;2022-12-10T08:56:35;-0.30;25.90
14401;DHT22;7285;50.894;5.462;2022-12-10T08:59:04;-0.30;4.10
14401;DHT22;7285;50.894;5.462;2022-12-10T09:01:31;-0.30;1.00
14401;DHT22;7285;50.894;5.462;2022-12-10T09:03:58;-0.30;1.00
14401;DHT22;7285;50.894;5.462;2022-12-10T09:06:26;-0.30;1.00
14401;DHT22;7285;50.894;5.462;2022-12-10T09:08:54;-0.30;1.00
14401;DHT22;7285;50.894;5.462;2022-12-10T09:11:24;-0.30;1.00
14401;DHT22;7285;50.894;5.462;2022-12-10T09:13:51;-0.30;8.80
14401;DHT22;7285;50.894;5.462;2022-12-10T09:16:18;-0.30;1.00
14401;DHT22;7285;50.894;5.462;2022-12-10T09:18:45;-0.20;1.00
14401;DHT22;7285;50.894;5.462;2022-12-10T09:21:14;-0.20;1.00
14401;DHT22;7285;50.894;5.462;2022-12-10T09:23:42;-0.20;1.00
14401;DHT22;7285;50.894;5.462;2022-12-10T09:26:13;-0.30;1.00
14401;DHT22;7285;50.894;5.462;2022-12-10T09:28:41;-0.30;1.00
14401;DHT22;7285;50.894;5.462;2022-12-10T09:31:10;-0.30;1.00
14401;DHT22;7285;50.894;5.462;2022-12-10T09:33:37;-0.30;1.00
14401;DHT22;7285;50.894;5.462;2022-12-10T09:36:06;-0.20;1.00
14401;DHT22;7285;50.894;5.462;2022-12-10T09:38:33;-0.20;5.50
14401;DHT22;7285;50.894;5.462;2022-12-10T09:41:02;-0.10;27.90
14401;DHT22;7285;50.894;5.462;2022-12-10T09:43:42;-0.20;1.00
14401;DHT22;7285;50.894;5.462;2022-12-10T09:46:20;-0.20;1.00
14401;DHT22;7285;50.894;5.462;2022-12-10T09:48:58;-0.20;1.00
14401;DHT22;7285;50.894;5.462;2022-12-10T09:51:29;-0.10;1.00
14401;DHT22;7285;50.894;5.462;2022-12-10T09:53:59;-0.10;1.00
14401;DHT22;7285;50.894;5.462;2022-12-10T09:56:29;-0.20;1.00
14401;DHT22;7285;50.894;5.462;2022-12-10T09:59:02;-0.10;1.00
14401;DHT22;7285;50.894;5.462;2022-12-10T10:01:32;-0.20;1.00
14401;DHT22;7285;50.894;5.462;2022-12-10T10:04:03;-0.20;1.00
14401;DHT22;7285;50.894;5.462;2022-12-10T10:06:30;-0.20;1.00
14401;DHT22;7285;50.894;5.462;2022-12-10T10:08:59;-0.20;1.00
14401;DHT22;7285;50.894;5.462;2022-12-10T10:11:30;-0.20;1.00
14401;DHT22;7285;50.894;5.462;2022-12-10T10:14:03;-0.10;1.00
14401;DHT22;7285;50.894;5.462;2022-12-10T10:16:34;-0.10;1.00
14401;DHT22;7285;50.894;5.462;2022-12-10T10:19:03;0.00;1.00
14401;DHT22;7285;50.894;5.462;2022-12-10T10:21:35;-0.20;1.00
14401;DHT22;7285;50.894;5.462;2022-12-10T10:24:03;-0.10;1.00
14401;DHT22;7285;50.894;5.462;2022-12-10T10:26:31;-0.10;1.00
14401;DHT22;7285;50.894;5.462;2022-12-10T10:29:02;-0.10;1.00
14401;DHT22;7285;50.894;5.462;2022-12-10T10:31:32;-0.10;99.90
14401;DHT22;7285;50.894;5.462;2022-12-10T10:34:01;-0.10;99.90
14401;DHT22;7285;50.894;5.462;2022-12-10T10:36:30;-0.10;99.90
14401;DHT22;7285;50.894;5.462;2022-12-10T10:39:08;-0.10;99.90
14401;DHT22;7285;50.894;5.462;2022-12-10T10:41:37;-0.20;99.90
14401;DHT22;7285;50.894;5.462;2022-12-10T10:44:13;-0.30;99.90
14401;DHT22;7285;50.894;5.462;2022-12-10T10:46:41;-0.20;1.00
14401;DHT22;7285;50.894;5.462;2022-12-10T10:49:17;-0.20;1.00
14401;DHT22;7285;50.894;5.462;2022-12-10T10:51:45;-0.20;1.00
14401;DHT22;7285;50.894;5.462;2022-12-10T10:54:31;-0.10;1.00
14401;DHT22;7285;50.894;5.462;2022-12-10T10:57:02;-0.10;1.00
14401;DHT22;7285;50.894;5.462;2022-12-10T10:59:32;0.00;1.00
14401;DHT22;7285;50.894;5.462;2022-12-10T11:02:04;0.10;1.00
14401;DHT22;7285;50.894;5.462;2022-12-10T11:04:37;0.10;1.00
14401;DHT22;7285;50.894;5.462;2022-12-10T11:07:20;0.10;1.00
14401;DHT22;7285;50.894;5.462;2022-12-10T11:09:48;0.10;1.00
14401;DHT22;7285;50.894;5.462;2022-12-10T11:12:32;0.10;1.00
14401;DHT22;7285;50.894;5.462;2022-12-10T11:15:01;0.00;1.00
14401;DHT22;7285;50.894;5.462;2022-12-10T11:17:28;0.00;1.00
14401;DHT22;7285;50.894;5.462;2022-12-10T11:19:58;0.10;1.00
14401;DHT22;7285;50.894;5.462;2022-12-10T11:22:28;0.20;1.00
14401;DHT22;7285;50.894;5.462;2022-12-10T11:24:55;0.10;1.00
14401;DHT22;7285;50.894;5.462;2022-12-10T11:27:37;0.10;1.00
14401;DHT22;7285;50.894;5.462;2022-12-10T11:30:13;0.00;1.00
14401;DHT22;7285;50.894;5.462;2022-12-10T11:33:00;0.00;1.00
14401;DHT22;7285;50.894;5.462;2022-12-10T11:35:42;0.00;1.00
14401;DHT22;7285;50.894;5.462;2022-12-10T11:38:19;0.00;1.00
14401;DHT22;7285;50.894;5.462;2022-12-10T11:40:50;0.00;1.00
14401;DHT22;7285;50.894;5.462;2022-12-10T11:43:33;0.00;1.00
14401;DHT22;7285;50.894;5.462;2022-12-10T11:46:15;0.00;1.00
14401;DHT22;7285;50.894;5.462;2022-12-10T11:48:55;-0.10;1.00
14401;DHT22;7285;50.894;5.462;2022-12-10T11:51:32;-0.10;1.00
14401;DHT22;7285;50.894;5.462;2022-12-10T11:54:11;0.10;1.00
14401;DHT22;7285;50.894;5.462;2022-12-10T11:56:43;0.00;1.00
14401;DHT22;7285;50.894;5.462;2022-12-10T11:59:19;-0.10;1.00
14401;DHT22;7285;50.894;5.462;2022-12-10T12:02:03;0.00;1.00
14401;DHT22;7285;50.894;5.462;2022-12-10T12:04:43;-0.10;1.00
14401;DHT22;7285;50.894;5.462;2022-12-10T12:07:29;0.00;30.80
14401;DHT22;7285;50.894;5.462;2022-12-10T12:10:24;-0.10;1.00
14401;DHT22;7285;50.894;5.462;2022-12-10T12:12:58;0.00;99.90
14401;DHT22;7285;50.894;5.462;2022-12-10T12:15:29;0.00;99.90
14401;DHT22;7285;50.894;5.462;2022-12-10T12:18:03;0.00;99.90
14401;DHT22;7285;50.894;5.462;2022-12-10T12:20:33;0.00;99.90
14401;DHT22;7285;50.894;5.462;2022-12-10T12:23:05;-0.10;99.90
14401;DHT22;7285;50.894;5.462;2022-12-10T12:25:39;0.00;99.90
14401;DHT22;7285;50.894;5.462;2022-12-10T12:28:12;0.00;99.90
14401;DHT22;7285;50.894;5.462;2022-12-10T12:30:45;0.10;99.90
14401;DHT22;7285;50.894;5.462;2022-12-10T12:33:22;0.10;99.90
14401;DHT22;7285;50.894;5.462;2022-12-10T12:35:56;0.10;99.90
14401;DHT22;7285;50.894;5.462;2022-12-10T12:38:28;0.10;99.90
14401;DHT22;7285;50.894;5.462;2022-12-10T12:41:01;0.20;99.90
14401;DHT22;7285;50.894;5.462;2022-12-10T12:43:39;0.10;99.90
14401;DHT22;7285;50.894;5.462;2022-12-10T12:46:12;0.10;99.90
14401;DHT22;7285;50.894;5.462;2022-12-10T12:48:50;0.20;99.90
14401;DHT22;7285;50.894;5.462;2022-12-10T12:51:23;0.10;99.90
14401;DHT22;7285;50.894;5.462;2022-12-10T12:53:53;0.20;99.90
14401;DHT22;7285;50.894;5.462;2022-12-10T12:56:26;0.20;99.90
14401;DHT22;7285;50.894;5.462;2022-12-10T12:59:04;0.10;99.90
14401;DHT22;7285;50.894;5.462;2022-12-10T13:01:40;0.20;99.90
14401;DHT22;7285;50.894;5.462;2022-12-10T13:04:11;0.20;99.90
14401;DHT22;7285;50.894;5.462;2022-12-10T13:06:39;0.30;45.30
14401;DHT22;7285;50.894;5.462;2022-12-10T13:09:25;0.40;99.90
14401;DHT22;7285;50.894;5.462;2022-12-10T13:12:26;0.30;99.90
14401;DHT22;7285;50.894;5.462;2022-12-10T13:15:16;0.30;1.00
14401;DHT22;7285;50.894;5.462;2022-12-10T13:18:04;0.20;1.00
14401;DHT22;7285;50.894;5.462;2022-12-10T13:20:39;0.20;77.60
14401;DHT22;7285;50.894;5.462;2022-12-10T13:23:29;0.10;99.90
14401;DHT22;7285;50.894;5.462;2022-12-10T13:26:01;0.20;99.90
14401;DHT22;7285;50.894;5.462;2022-12-10T13:28:52;0.30;99.90
14401;DHT22;7285;50.894;5.462;2022-12-10T13:31:22;0.30;99.90
14401;DHT22;7285;50.894;5.462;2022-12-10T13:34:21;0.30;99.90
14401;DHT22;7285;50.894;5.462;2022-12-10T13:37:30;0.30;1.00
14401;DHT22;7285;50.894;5.462;2022-12-10T13:40:13;0.30;99.90
14401;DHT22;7285;50.894;5.462;2022-12-10T13:42:44;0.20;99.90
14401;DHT22;7285;50.894;5.462;2022-12-10T13:45:34;0.20;99.90
14401;DHT22;7285;50.894;5.462;2022-12-10T13:48:25;0.20;1.00
14401;DHT22;7285;50.894;5.462;2022-12-10T13:51:04;0.20;1.00
14401;DHT22;7285;50.894;5.462;2022-12-10T13:53:44;0.30;1.00
14401;DHT22;7285;50.894;5.462;2022-12-10T13:56:21;0.30;1.00
14401;DHT22;7285;50.894;5.462;2022-12-10T13:58:57;0.30;1.00
14401;DHT22;7285;50.894;5.462;2022-12-10T14:01:35;0.20;1.00
14401;DHT22;7285;50.894;5.462;2022-12-10T14:04:21;0.20;1.00
14401;DHT22;7285;50.894;5.462;2022-12-10T14:06:53;0.20;1.00
14401;DHT22;7285;50.894;5.462;2022-12-10T14:09:24;0.20;1.00
14401;DHT22;7285;50.894;5.462;2022-12-10T14:11:55;0.30;1.00
14401;DHT22;7285;50.894;5.462;2022-12-10T14:14:27;0.20;1.00
14401;DHT22;7285;50.894;5.462;2022-12-10T14:16:57;0.30;90.10
14401;DHT22;7285;50.894;5.462;2022-12-10T14:19:27;0.30;36.30
14401;DHT22;7285;50.894;5.462;2022-12-10T14:21:55;0.30;99.90
14401;DHT22;7285;50.894;5.462;2022-12-10T14:24:28;0.30;99.90
14401;DHT22;7285;50.894;5.462;2022-12-10T14:26:58;0.30;99.90
14401;DHT22;7285;50.894;5.462;2022-12-10T14:29:25;0.20;50.20
14401;DHT22;7285;50.894;5.462;2022-12-10T14:31:52;0.20;99.90
14401;DHT22;7285;50.894;5.462;2022-12-10T14:34:24;0.30;99.90
14401;DHT22;7285;50.894;5.462;2022-12-10T14:36:53;0.30;99.90
14401;DHT22;7285;50.894;5.462;2022-12-10T14:39:22;0.30;99.90
14401;DHT22;7285;50.894;5.462;2022-12-10T14:41:56;0.20;99.90
14401;DHT22;7285;50.894;5.462;2022-12-10T14:44:23;0.20;99.90
14401;DHT22;7285;50.894;5.462;2022-12-10T14:46:51;0.10;1.00
14401;DHT22;7285;50.894;5.462;2022-12-10T14:49:20;0.20;1.00
14401;DHT22;7285;50.894;5.462;2022-12-10T14:51:48;0.20;1.00
14401;DHT22;7285;50.894;5.462;2022-12-10T14:54:33;0.10;1.00
14401;DHT22;7285;50.894;5.462;2022-12-10T14:57:05;0.00;99.90
14401;DHT22;7285;50.894;5.462;2022-12-10T14:59:36;0.00;99.90
14401;DHT22;7285;50.894;5.462;2022-12-10T15:02:14;0.00;99.90
14401;DHT22;7285;50.894;5.462;2022-12-10T15:04:45;0.10;1.00
14401;DHT22;7285;50.894;5.462;2022-12-10T15:07:14;0.00;1.00
14401;DHT22;7285;50.894;5.462;2022-12-10T15:09:46;0.10;1.00
14401;DHT22;7285;50.894;5.462;2022-12-10T15:12:32;0.00;1.00
14401;DHT22;7285;50.894;5.462;2022-12-10T15:15:10;0.00;99.90
14401;DHT22;7285;50.894;5.462;2022-12-10T15:17:40;0.00;99.90
14401;DHT22;7285;50.894;5.462;2022-12-10T15:20:20;0.00;1.00
14401;DHT22;7285;50.894;5.462;2022-12-10T15:22:47;0.00;1.00
14401;DHT22;7285;50.894;5.462;2022-12-10T15:25:20;0.10;1.00
14401;DHT22;7285;50.894;5.462;2022-12-10T15:27:58;0.00;1.00
14401;DHT22;7285;50.894;5.462;2022-12-10T15:30:34;0.00;1.00
14401;DHT22;7285;50.894;5.462;2022-12-10T15:33:03;0.00;1.00
14401;DHT22;7285;50.894;5.462;2022-12-10T15:35:35;-0.10;1.00
14401;DHT22;7285;50.894;5.462;2022-12-10T15:38:02;-0.10;1.00
14401;DHT22;7285;50.894;5.462;2022-12-10T15:40:30;-0.10;1.00
14401;DHT22;7285;50.894;5.462;2022-12-10T15:43:11;0.00;1.00
14401;DHT22;7285;50.894;5.462;2022-12-10T15:45:40;-0.10;99.90
14401;DHT22;7285;50.894;5.462;2022-12-10T15:48:09;0.00;99.90
14401;DHT22;7285;50.894;5.462;2022-12-10T15:50:37;-0.10;99.90
14401;DHT22;7285;50.894;5.462;2022-12-10T15:53:04;0.00;99.90
14401;DHT22;7285;50.894;5.462;2022-12-10T15:55:31;0.00;99.90
14401;DHT22;7285;50.894;5.462;2022-12-10T15:57:59;0.00;99.90
14401;DHT22;7285;50.894;5.462;2022-12-10T16:00:27;0.00;1.00
14401;DHT22;7285;50.894;5.462;2022-12-10T16:02:56;0.00;1.00
14401;DHT22;7285;50.894;5.462;2022-12-10T16:05:25;0.00;1.00
14401;DHT22;7285;50.894;5.462;2022-12-10T16:07:55;-0.10;1.00
14401;DHT22;7285;50.894;5.462;2022-12-10T16:10:24;0.00;1.00
14401;DHT22;7285;50.894;5.462;2022-12-10T16:12:59;0.00;1.00
14401;DHT22;7285;50.894;5.462;2022-12-10T16:15:29;0.00;1.00
14401;DHT22;7285;50.894;5.462;2022-12-10T16:17:56;0.00;1.00
14401;DHT22;7285;50.894;5.462;2022-12-10T16:20:25;0.00;1.00
14401;DHT22;7285;50.894;5.462;2022-12-10T16:22:52;0.00;1.00
14401;DHT22;7285;50.894;5.462;2022-12-10T16:25:19;-0.10;1.00
14401;DHT22;7285;50.894;5.462;2022-12-10T16:27:46;-0.10;1.00